createdAt,value
2018-08-21T00:00:00.439Z,1015.67
2018-08-21T00:01:09.340Z,1015.7
2018-08-21T00:02:17.995Z,1015.72
2018-08-21T00:03:26.631Z,1015.73
2018-08-21T00:04:35.285Z,1015.68
2018-08-21T00:05:43.925Z,1015.71
2018-08-21T00:06:52.580Z,1015.71
2018-08-21T00:08:01.217Z,1015.71
2018-08-21T00:09:09.866Z,1015.7
2018-08-21T00:10:18.523Z,1015.69
2018-08-21T00:11:27.172Z,1015.69
2018-08-21T00:12:35.824Z,1015.68
2018-08-21T00:13:44.463Z,1015.67
2018-08-21T00:14:53.116Z,1015.69
2018-08-21T00:16:02.037Z,1015.68
2018-08-21T00:17:10.954Z,1015.68
2018-08-21T00:18:19.600Z,1015.63
2018-08-21T00:19:28.238Z,1015.64
2018-08-21T00:20:36.890Z,1015.64
2018-08-21T00:21:45.535Z,1015.64
2018-08-21T00:22:54.187Z,1015.65
2018-08-21T00:24:02.825Z,1015.67
2018-08-21T00:25:11.475Z,1015.66
2018-08-21T00:26:20.117Z,1015.66
2018-08-21T00:27:28.773Z,1015.67
2018-08-21T00:28:37.410Z,1015.67
2018-08-21T00:29:46.059Z,1015.65
2018-08-21T00:30:54.706Z,1015.63
2018-08-21T00:32:03.362Z,1015.65
2018-08-21T00:33:12.266Z,1015.62
2018-08-21T00:34:20.909Z,1015.64
2018-08-21T00:35:29.554Z,1015.64
2018-08-21T00:36:38.199Z,1015.64
2018-08-21T00:37:46.855Z,1015.65
2018-08-21T00:38:55.496Z,1015.64
2018-08-21T00:40:04.421Z,1015.61
2018-08-21T00:41:13.063Z,1015.63
2018-08-21T00:42:21.716Z,1015.59
2018-08-21T00:43:30.359Z,1015.6
2018-08-21T00:44:39.012Z,1015.63
2018-08-21T00:45:48.176Z,1015.58
2018-08-21T00:46:56.830Z,1015.63
2018-08-21T00:48:05.478Z,1015.62
2018-08-21T00:49:14.127Z,1015.61
2018-08-21T00:50:22.765Z,1015.64
2018-08-21T00:51:31.420Z,1015.63
2018-08-21T00:52:40.068Z,1015.62
2018-08-21T00:53:49.257Z,1015.65
2018-08-21T00:54:57.904Z,1015.67
2018-08-21T00:56:06.541Z,1015.65
2018-08-21T00:57:15.454Z,1015.64
2018-08-21T00:58:24.099Z,1015.67
2018-08-21T00:59:32.753Z,1015.69
2018-08-21T01:00:41.390Z,1015.7
2018-08-21T01:01:50.039Z,1015.71
2018-08-21T01:02:58.679Z,1015.71
2018-08-21T01:04:07.600Z,1015.68
2018-08-21T01:05:16.237Z,1015.73
2018-08-21T01:06:24.893Z,1015.71
2018-08-21T01:07:33.804Z,1015.7
2018-08-21T01:08:42.454Z,1015.71
2018-08-21T01:09:51.102Z,1015.7
2018-08-21T01:11:00.008Z,1015.74
2018-08-21T01:12:08.656Z,1015.71
2018-08-21T01:13:17.297Z,1015.71
2018-08-21T01:14:25.954Z,1015.72
2018-08-21T01:15:34.601Z,1015.71
2018-08-21T01:16:43.246Z,1015.71
2018-08-21T01:17:51.890Z,1015.73
2018-08-21T01:19:00.540Z,1015.72
2018-08-21T01:20:09.189Z,1015.72
2018-08-21T01:21:17.835Z,1015.76
2018-08-21T01:22:26.480Z,1015.75
2018-08-21T01:23:35.130Z,1015.77
2018-08-21T01:24:44.035Z,1015.73
2018-08-21T01:25:52.886Z,1015.72
2018-08-21T01:27:01.529Z,1015.7
2018-08-21T01:28:10.178Z,1015.71
2018-08-21T01:29:18.825Z,1015.74
2018-08-21T01:30:27.474Z,1015.75
2018-08-21T01:31:36.122Z,1015.75
2018-08-21T01:32:44.766Z,1015.75
2018-08-21T01:33:53.675Z,1015.73
2018-08-21T01:35:02.323Z,1015.72
2018-08-21T01:36:10.973Z,1015.74
2018-08-21T01:37:19.617Z,1015.71
2018-08-21T01:38:28.528Z,1015.78
2018-08-21T01:39:37.179Z,1015.75
2018-08-21T01:40:46.091Z,1015.78
2018-08-21T01:41:54.737Z,1015.78
2018-08-21T01:43:03.382Z,1015.78
2018-08-21T01:44:12.025Z,1015.73
2018-08-21T01:45:20.676Z,1015.71
2018-08-21T01:46:29.322Z,1015.74
2018-08-21T01:47:38.230Z,1015.72
2018-08-21T01:48:46.876Z,1015.7
2018-08-21T01:49:55.782Z,1015.76
2018-08-21T01:51:04.700Z,1015.74
2018-08-21T01:52:13.346Z,1015.78
2018-08-21T01:53:21.991Z,1015.77
2018-08-21T01:54:30.628Z,1015.77
2018-08-21T01:55:39.814Z,1015.8
2018-08-21T01:56:48.461Z,1015.75
2018-08-21T01:57:57.111Z,1015.77
2018-08-21T01:59:05.753Z,1015.76
2018-08-21T02:00:14.944Z,1015.73
2018-08-21T02:01:23.844Z,1015.78
2018-08-21T02:02:32.493Z,1015.75
2018-08-21T02:03:41.139Z,1015.78
2018-08-21T02:04:50.045Z,1015.78
2018-08-21T02:05:58.955Z,1015.76
2018-08-21T02:07:07.863Z,1015.77
2018-08-21T02:08:16.508Z,1015.79
2018-08-21T02:09:25.164Z,1015.79
2018-08-21T02:10:33.807Z,1015.76
2018-08-21T02:11:42.458Z,1015.75
2018-08-21T02:12:51.099Z,1015.75
2018-08-21T02:13:59.754Z,1015.77
2018-08-21T02:15:08.692Z,1015.76
2018-08-21T02:16:17.346Z,1015.76
2018-08-21T02:17:25.984Z,1015.71
2018-08-21T02:18:34.637Z,1015.68
2018-08-21T02:19:43.279Z,1015.7
2018-08-21T02:20:51.926Z,1015.66
2018-08-21T02:22:00.836Z,1015.68
2018-08-21T02:23:09.746Z,1015.69
2018-08-21T02:24:18.393Z,1015.64
2018-08-21T02:25:27.041Z,1015.66
2018-08-21T02:26:35.690Z,1015.69
2018-08-21T02:27:44.325Z,1015.69
2018-08-21T02:28:52.975Z,1015.7
2018-08-21T02:30:02.146Z,1015.66
2018-08-21T02:31:11.071Z,1015.68
2018-08-21T02:32:19.708Z,1015.66
2018-08-21T02:33:28.622Z,1015.63
2018-08-21T02:34:37.534Z,1015.66
2018-08-21T02:35:46.189Z,1015.65
2018-08-21T02:36:54.831Z,1015.68
2018-08-21T02:38:03.487Z,1015.69
2018-08-21T02:39:12.672Z,1015.63
2018-08-21T02:40:21.322Z,1015.65
2018-08-21T02:41:29.969Z,1015.64
2018-08-21T02:42:38.612Z,1015.59
2018-08-21T02:43:47.256Z,1015.59
2018-08-21T02:44:55.899Z,1015.58
2018-08-21T02:46:04.554Z,1015.55
2018-08-21T02:47:13.194Z,1015.56
2018-08-21T02:48:21.848Z,1015.56
2018-08-21T02:49:30.485Z,1015.54
2018-08-21T02:50:39.143Z,1015.59
2018-08-21T02:51:47.786Z,1015.56
2018-08-21T02:52:56.436Z,1015.55
2018-08-21T02:54:05.345Z,1015.53
2018-08-21T02:55:14.266Z,1015.54
2018-08-21T02:56:23.171Z,1015.54
2018-08-21T02:57:31.817Z,1015.51
2018-08-21T02:58:40.457Z,1015.52
2018-08-21T02:59:49.108Z,1015.49
2018-08-21T03:00:57.757Z,1015.46
2018-08-21T03:02:06.405Z,1015.49
2018-08-21T03:03:15.365Z,1015.47
2018-08-21T03:04:23.956Z,1015.47
2018-08-21T03:05:32.865Z,1015.44
2018-08-21T03:06:41.512Z,1015.45
2018-08-21T03:07:50.162Z,1015.46
2018-08-21T03:08:58.802Z,1015.47
2018-08-21T03:10:07.723Z,1015.45
2018-08-21T03:11:16.371Z,1015.47
2018-08-21T03:12:25.024Z,1015.49
2018-08-21T03:13:33.666Z,1015.47
2018-08-21T03:14:42.580Z,1015.45
2018-08-21T03:15:51.234Z,1015.42
2018-08-21T03:16:59.888Z,1015.46
2018-08-21T03:18:08.533Z,1015.44
2018-08-21T03:19:17.440Z,1015.47
2018-08-21T03:20:26.646Z,1015.44
2018-08-21T03:21:35.298Z,1015.46
2018-08-21T03:22:44.288Z,1015.46
2018-08-21T03:23:52.939Z,1015.46
2018-08-21T03:25:01.859Z,1015.47
2018-08-21T03:26:11.025Z,1015.45
2018-08-21T03:27:19.674Z,1015.48
2018-08-21T03:28:28.320Z,1015.43
2018-08-21T03:29:36.966Z,1015.45
2018-08-21T03:30:45.608Z,1015.44
2018-08-21T03:31:54.531Z,1015.44
2018-08-21T03:33:03.438Z,1015.47
2018-08-21T03:34:12.103Z,1015.43
2018-08-21T03:35:20.731Z,1015.46
2018-08-21T03:36:29.380Z,1015.41
2018-08-21T03:37:38.024Z,1015.45
2018-08-21T03:38:46.678Z,1015.47
2018-08-21T03:39:55.595Z,1015.44
2018-08-21T03:41:04.235Z,1015.43
2018-08-21T03:42:12.882Z,1015.47
2018-08-21T03:43:21.529Z,1015.46
2018-08-21T03:44:30.441Z,1015.44
2018-08-21T03:45:39.081Z,1015.51
2018-08-21T03:46:47.992Z,1015.47
2018-08-21T03:47:56.639Z,1015.48
2018-08-21T03:49:05.287Z,1015.49
2018-08-21T03:50:13.930Z,1015.44
2018-08-21T03:51:22.577Z,1015.43
2018-08-21T03:52:31.227Z,1015.47
2018-08-21T03:53:39.876Z,1015.43
2018-08-21T03:54:48.516Z,1015.45
2018-08-21T03:55:57.690Z,1015.43
2018-08-21T03:57:06.603Z,1015.46
2018-08-21T03:58:15.509Z,1015.48
2018-08-21T03:59:24.160Z,1015.47
2018-08-21T04:00:32.804Z,1015.48
2018-08-21T04:01:41.458Z,1015.47
2018-08-21T04:02:50.356Z,1015.48
2018-08-21T04:03:59.003Z,1015.51
2018-08-21T04:05:07.703Z,1015.52
2018-08-21T04:06:17.152Z,1015.53
2018-08-21T04:07:25.811Z,1015.53
2018-08-21T04:08:34.455Z,1015.57
2018-08-21T04:09:43.097Z,1015.59
2018-08-21T04:10:51.740Z,1015.6
2018-08-21T04:12:00.389Z,1015.62
2018-08-21T04:13:09.035Z,1015.58
2018-08-21T04:14:17.683Z,1015.59
2018-08-21T04:15:26.326Z,1015.59
2018-08-21T04:16:34.973Z,1015.56
2018-08-21T04:17:43.627Z,1015.58
2018-08-21T04:18:52.536Z,1015.6
2018-08-21T04:20:01.182Z,1015.64
2018-08-21T04:21:09.841Z,1015.61
2018-08-21T04:22:18.482Z,1015.64
2018-08-21T04:23:27.130Z,1015.64
2018-08-21T04:24:35.783Z,1015.62
2018-08-21T04:25:44.418Z,1015.65
2018-08-21T04:26:53.074Z,1015.65
2018-08-21T04:28:01.718Z,1015.66
2018-08-21T04:29:10.368Z,1015.67
2018-08-21T04:30:19.008Z,1015.74
2018-08-21T04:31:27.651Z,1015.69
2018-08-21T04:32:36.333Z,1015.69
2018-08-21T04:33:44.951Z,1015.73
2018-08-21T04:34:54.119Z,1015.72
2018-08-21T04:36:02.760Z,1015.72
2018-08-21T04:37:11.666Z,1015.73
2018-08-21T04:38:20.318Z,1015.71
2018-08-21T04:39:28.964Z,1015.72
2018-08-21T04:40:37.605Z,1015.72
2018-08-21T04:41:46.256Z,1015.74
2018-08-21T04:42:54.901Z,1015.73
2018-08-21T04:44:03.553Z,1015.74
2018-08-21T04:45:12.190Z,1015.73
2018-08-21T04:46:20.870Z,1015.74
2018-08-21T04:47:29.486Z,1015.7
2018-08-21T04:48:38.135Z,1015.74
2018-08-21T04:49:46.783Z,1015.77
2018-08-21T04:50:55.690Z,1015.78
2018-08-21T04:52:04.333Z,1015.82
2018-08-21T04:53:12.979Z,1015.83
2018-08-21T04:54:21.630Z,1015.85
2018-08-21T04:55:30.276Z,1015.85
2018-08-21T04:56:38.923Z,1015.88
2018-08-21T04:57:47.562Z,1015.91
2018-08-21T04:58:56.227Z,1015.89
2018-08-21T05:00:05.542Z,1015.88
2018-08-21T05:01:14.186Z,1015.89
2018-08-21T05:02:22.826Z,1015.85
2018-08-21T05:03:31.480Z,1015.9
2018-08-21T05:04:40.125Z,1015.83
2018-08-21T05:05:49.134Z,1015.85
2018-08-21T05:06:57.677Z,1015.81
2018-08-21T05:08:06.584Z,1015.85
2018-08-21T05:09:15.238Z,1015.81
2018-08-21T05:10:23.885Z,1015.81
2018-08-21T05:11:32.798Z,1015.8
2018-08-21T05:12:41.510Z,1015.79
2018-08-21T05:13:50.463Z,1015.82
2018-08-21T05:14:59.102Z,1015.81
2018-08-21T05:16:07.756Z,1015.81
2018-08-21T05:17:16.396Z,1015.86
2018-08-21T05:18:25.048Z,1015.82
2018-08-21T05:19:33.690Z,1015.84
2018-08-21T05:20:42.345Z,1015.84
2018-08-21T05:21:51.243Z,1015.82
2018-08-21T05:22:59.892Z,1015.82
2018-08-21T05:24:08.534Z,1015.8
2018-08-21T05:25:17.189Z,1015.84
2018-08-21T05:26:25.833Z,1015.88
2018-08-21T05:27:34.478Z,1015.91
2018-08-21T05:28:43.172Z,1015.94
2018-08-21T05:29:51.769Z,1015.96
2018-08-21T05:31:00.423Z,1015.95
2018-08-21T05:32:09.592Z,1015.99
2018-08-21T05:33:18.240Z,1016
2018-08-21T05:34:26.876Z,1015.97
2018-08-21T05:35:35.532Z,1015.97
2018-08-21T05:36:44.176Z,1015.97
2018-08-21T05:37:52.826Z,1015.95
2018-08-21T05:39:01.462Z,1015.96
2018-08-21T05:40:10.116Z,1015.97
2018-08-21T05:41:19.034Z,1015.97
2018-08-21T05:42:27.682Z,1015.98
2018-08-21T05:43:36.361Z,1015.99
2018-08-21T05:44:45.369Z,1016
2018-08-21T05:45:54.017Z,1016
2018-08-21T05:47:02.666Z,1016.02
2018-08-21T05:48:11.578Z,1016.05
2018-08-21T05:49:20.478Z,1016.06
2018-08-21T05:50:29.400Z,1016.05
2018-08-21T05:51:38.052Z,1016.08
2018-08-21T05:52:46.707Z,1016.07
2018-08-21T05:53:55.349Z,1016.1
2018-08-21T05:55:04.006Z,1016.1
2018-08-21T05:56:12.986Z,1016.08
2018-08-21T05:57:21.647Z,1016.08
2018-08-21T05:58:30.283Z,1016.12
2018-08-21T05:59:38.932Z,1016.11
2018-08-21T06:00:47.577Z,1016.09
2018-08-21T06:01:56.225Z,1016.12
2018-08-21T06:03:04.868Z,1016.12
2018-08-21T06:04:13.514Z,1016.13
2018-08-21T06:05:22.158Z,1016.12
2018-08-21T06:06:30.801Z,1016.13
2018-08-21T06:07:39.728Z,1016.11
2018-08-21T06:08:48.652Z,1016.1
2018-08-21T06:09:57.298Z,1016.15
2018-08-21T06:11:06.212Z,1016.13
2018-08-21T06:12:14.868Z,1016.14
2018-08-21T06:13:23.523Z,1016.16
2018-08-21T06:14:32.429Z,1016.19
2018-08-21T06:15:41.073Z,1016.16
2018-08-21T06:16:49.731Z,1016.16
2018-08-21T06:17:58.822Z,1016.15
2018-08-21T06:19:07.735Z,1016.19
2018-08-21T06:20:16.680Z,1016.18
2018-08-21T06:21:25.645Z,1016.18
2018-08-21T06:22:34.442Z,1016.2
2018-08-21T06:23:43.174Z,1016.22
2018-08-21T06:24:51.849Z,1016.21
2018-08-21T06:26:00.468Z,1016.25
2018-08-21T06:27:09.374Z,1016.31
2018-08-21T06:28:18.291Z,1016.3
2018-08-21T06:29:27.209Z,1016.27
2018-08-21T06:30:36.388Z,1016.3
2018-08-21T06:31:45.301Z,1016.31
2018-08-21T06:32:53.951Z,1016.31
2018-08-21T06:34:02.600Z,1016.27
2018-08-21T06:35:11.241Z,1016.29
2018-08-21T06:36:20.292Z,1016.29
2018-08-21T06:37:28.826Z,1016.28
2018-08-21T06:38:37.476Z,1016.28
2018-08-21T06:39:46.185Z,1016.3
2018-08-21T06:40:55.282Z,1016.31
2018-08-21T06:42:03.926Z,1016.3
2018-08-21T06:43:12.571Z,1016.36
2018-08-21T06:44:21.220Z,1016.33
2018-08-21T06:45:29.868Z,1016.32
2018-08-21T06:46:38.566Z,1016.37
2018-08-21T06:47:47.176Z,1016.38
2018-08-21T06:48:55.829Z,1016.34
2018-08-21T06:50:04.480Z,1016.28
2018-08-21T06:51:13.124Z,1016.34
2018-08-21T06:52:21.769Z,1016.36
2018-08-21T06:53:30.421Z,1016.33
2018-08-21T06:54:39.067Z,1016.37
2018-08-21T06:55:47.720Z,1016.36
2018-08-21T06:56:56.359Z,1016.37
2018-08-21T06:58:05.014Z,1016.41
2018-08-21T06:59:13.926Z,1016.41
2018-08-21T07:00:22.585Z,1016.43
2018-08-21T07:01:31.496Z,1016.46
2018-08-21T07:02:40.141Z,1016.47
2018-08-21T07:03:48.802Z,1016.47
2018-08-21T07:04:57.445Z,1016.47
2018-08-21T07:06:06.106Z,1016.43
2018-08-21T07:07:14.752Z,1016.49
2018-08-21T07:08:23.407Z,1016.49
2018-08-21T07:09:32.051Z,1016.48
2018-08-21T07:10:40.712Z,1016.49
2018-08-21T07:11:49.352Z,1016.5
2018-08-21T07:12:58.267Z,1016.47
2018-08-21T07:14:06.912Z,1016.49
2018-08-21T07:15:15.570Z,1016.49
2018-08-21T07:16:24.216Z,1016.46
2018-08-21T07:17:32.860Z,1016.47
2018-08-21T07:18:41.506Z,1016.47
2018-08-21T07:19:50.150Z,1016.43
2018-08-21T07:20:58.811Z,1016.47
2018-08-21T07:22:07.495Z,1016.46
2018-08-21T07:23:16.114Z,1016.49
2018-08-21T07:24:24.753Z,1016.45
2018-08-21T07:25:33.413Z,1016.49
2018-08-21T07:26:42.320Z,1016.5
2018-08-21T07:27:50.975Z,1016.49
2018-08-21T07:28:59.874Z,1016.51
2018-08-21T07:30:08.537Z,1016.52
2018-08-21T07:31:17.180Z,1016.52
2018-08-21T07:32:25.832Z,1016.53
2018-08-21T07:33:34.482Z,1016.51
2018-08-21T07:34:43.132Z,1016.53
2018-08-21T07:35:51.859Z,1016.57
2018-08-21T07:37:00.702Z,1016.53
2018-08-21T07:38:09.355Z,1016.59
2018-08-21T07:39:17.996Z,1016.54
2018-08-21T07:40:27.181Z,1016.55
2018-08-21T07:41:35.828Z,1016.56
2018-08-21T07:42:44.486Z,1016.56
2018-08-21T07:43:53.126Z,1016.55
2018-08-21T07:45:01.781Z,1016.56
2018-08-21T07:46:10.427Z,1016.61
2018-08-21T07:47:19.088Z,1016.59
2018-08-21T07:48:27.726Z,1016.6
2018-08-21T07:49:36.380Z,1016.6
2018-08-21T07:50:45.027Z,1016.64
2018-08-21T07:51:53.685Z,1016.67
2018-08-21T07:53:02.331Z,1016.65
2018-08-21T07:54:10.981Z,1016.63
2018-08-21T07:55:19.629Z,1016.64
2018-08-21T07:56:28.285Z,1016.65
2018-08-21T07:57:36.944Z,1016.65
2018-08-21T07:58:45.591Z,1016.69
2018-08-21T07:59:54.237Z,1016.72
2018-08-21T08:01:02.898Z,1016.66
2018-08-21T08:02:11.542Z,1016.67
2018-08-21T08:03:20.457Z,1016.67
2018-08-21T08:04:29.102Z,1016.66
2018-08-21T08:05:38.030Z,1016.66
2018-08-21T08:06:46.670Z,1016.65
2018-08-21T08:07:55.328Z,1016.66
2018-08-21T08:09:04.505Z,1016.68
2018-08-21T08:10:13.429Z,1016.69
2018-08-21T08:11:22.076Z,1016.72
2018-08-21T08:12:30.985Z,1016.69
2018-08-21T08:13:39.676Z,1016.69
2018-08-21T08:14:48.281Z,1016.7
2018-08-21T08:15:56.941Z,1016.69
2018-08-21T08:17:05.588Z,1016.71
2018-08-21T08:18:14.243Z,1016.74
2018-08-21T08:19:22.884Z,1016.76
2018-08-21T08:20:31.548Z,1016.77
2018-08-21T08:21:40.192Z,1016.7
2018-08-21T08:22:48.849Z,1016.74
2018-08-21T08:23:57.494Z,1016.7
2018-08-21T08:25:06.160Z,1016.68
2018-08-21T08:26:14.808Z,1016.67
2018-08-21T08:27:23.461Z,1016.69
2018-08-21T08:28:32.104Z,1016.71
2018-08-21T08:29:40.760Z,1016.68
2018-08-21T08:30:49.417Z,1016.72
2018-08-21T08:31:58.068Z,1016.73
2018-08-21T08:33:06.724Z,1016.74
2018-08-21T08:34:15.367Z,1016.73
2018-08-21T08:35:24.023Z,1016.75
2018-08-21T08:36:32.674Z,1016.74
2018-08-21T08:37:41.330Z,1016.74
2018-08-21T08:38:49.970Z,1016.74
2018-08-21T08:39:58.626Z,1016.77
2018-08-21T08:41:07.272Z,1016.77
2018-08-21T08:42:16.202Z,1016.76
2018-08-21T08:43:24.848Z,1016.76
2018-08-21T08:44:33.502Z,1016.74
2018-08-21T08:45:42.421Z,1016.74
2018-08-21T08:46:51.083Z,1016.72
2018-08-21T08:47:59.733Z,1016.77
2018-08-21T08:49:10.032Z,1016.74
2018-08-21T08:50:56.989Z,1016.74
2018-08-21T08:52:05.653Z,1016.77
2018-08-21T08:53:20.743Z,1016.74
2018-08-21T08:54:34.415Z,1016.76
2018-08-21T08:55:43.336Z,1016.73
2018-08-21T08:56:51.980Z,1016.74
2018-08-21T08:58:00.638Z,1016.77
2018-08-21T08:59:09.291Z,1016.7
2018-08-21T09:00:17.946Z,1016.71
2018-08-21T09:01:27.635Z,1016.7
2018-08-21T09:02:39.298Z,1016.72
2018-08-21T09:03:50.855Z,1016.71
2018-08-21T09:05:02.801Z,1016.69
2018-08-21T09:06:14.323Z,1016.68
2018-08-21T09:07:25.821Z,1016.69
2018-08-21T09:08:37.234Z,1016.66
2018-08-21T09:09:49.115Z,1016.65
2018-08-21T09:11:00.760Z,1016.64
2018-08-21T09:12:12.334Z,1016.63
2018-08-21T09:13:23.500Z,1016.63
2018-08-21T09:14:34.155Z,1016.62
2018-08-21T09:15:46.118Z,1016.59
2018-08-21T09:16:58.116Z,1016.62
2018-08-21T09:18:11.076Z,1016.61
2018-08-21T09:19:23.862Z,1016.58
2018-08-21T09:20:36.437Z,1016.6
2018-08-21T09:21:49.098Z,1016.61
2018-08-21T09:23:02.386Z,1016.58
2018-08-21T09:24:14.727Z,1016.57
2018-08-21T09:25:26.636Z,1016.53
2018-08-21T09:26:38.206Z,1016.55
2018-08-21T09:27:50.891Z,1016.56
2018-08-21T09:29:02.092Z,1016.54
2018-08-21T09:30:14.101Z,1016.54
2018-08-21T09:31:27.730Z,1016.53
2018-08-21T09:32:40.637Z,1016.52
2018-08-21T09:33:53.157Z,1016.51
2018-08-21T09:35:05.874Z,1016.53
2018-08-21T09:36:18.649Z,1016.52
2018-08-21T09:37:31.496Z,1016.55
2018-08-21T09:38:43.912Z,1016.54
2018-08-21T09:39:55.052Z,1016.54
2018-08-21T09:41:06.481Z,1016.54
2018-08-21T09:42:17.740Z,1016.54
2018-08-21T09:43:29.030Z,1016.57
2018-08-21T09:44:40.143Z,1016.56
2018-08-21T09:45:51.421Z,1016.58
2018-08-21T09:47:03.329Z,1016.58
2018-08-21T09:48:11.983Z,1016.59
2018-08-21T09:49:20.636Z,1016.58
2018-08-21T09:50:29.931Z,1016.6
2018-08-21T09:51:38.648Z,1016.57
2018-08-21T09:52:47.368Z,1016.59
2018-08-21T09:53:56.025Z,1016.54
2018-08-21T09:55:04.680Z,1016.55
2018-08-21T09:56:13.602Z,1016.54
2018-08-21T09:57:22.248Z,1016.52
2018-08-21T09:58:30.910Z,1016.55
2018-08-21T09:59:39.558Z,1016.56
2018-08-21T10:00:48.215Z,1016.54
2018-08-21T10:01:56.866Z,1016.54
2018-08-21T10:03:05.855Z,1016.54
2018-08-21T10:04:14.506Z,1016.52
2018-08-21T10:05:23.176Z,1016.51
2018-08-21T10:06:31.844Z,1016.56
2018-08-21T10:07:40.478Z,1016.5
2018-08-21T10:08:49.402Z,1016.49
2018-08-21T10:09:58.055Z,1016.51
2018-08-21T10:11:06.710Z,1016.51
2018-08-21T10:12:15.622Z,1016.55
2018-08-21T10:13:24.308Z,1016.52
2018-08-21T10:14:33.046Z,1016.51
2018-08-21T10:15:41.960Z,1016.52
2018-08-21T10:16:50.775Z,1016.53
2018-08-21T10:17:59.477Z,1016.54
2018-08-21T10:19:08.395Z,1016.56
2018-08-21T10:20:17.051Z,1016.57
2018-08-21T10:21:25.965Z,1016.57
2018-08-21T10:22:34.619Z,1016.58
2018-08-21T10:23:43.275Z,1016.55
2018-08-21T10:24:51.930Z,1016.55
2018-08-21T10:26:00.853Z,1016.52
2018-08-21T10:27:09.770Z,1016.52
2018-08-21T10:28:18.697Z,1016.52
2018-08-21T10:29:27.354Z,1016.53
2018-08-21T10:30:36.668Z,1016.5
2018-08-21T10:31:45.575Z,1016.5
2018-08-21T10:32:54.305Z,1016.52
2018-08-21T10:34:03.219Z,1016.52
2018-08-21T10:35:11.877Z,1016.47
2018-08-21T10:36:20.525Z,1016.48
2018-08-21T10:37:29.180Z,1016.48
2018-08-21T10:38:37.834Z,1016.48
2018-08-21T10:39:46.489Z,1016.46
2018-08-21T10:40:55.148Z,1016.48
2018-08-21T10:42:04.067Z,1016.45
2018-08-21T10:43:12.982Z,1016.46
2018-08-21T10:44:21.635Z,1016.43
2018-08-21T10:45:30.734Z,1016.41
2018-08-21T10:46:39.384Z,1016.41
2018-08-21T10:47:48.043Z,1016.36
2018-08-21T10:48:56.947Z,1016.36
2018-08-21T10:50:05.871Z,1016.36
2018-08-21T10:51:14.522Z,1016.4
2018-08-21T10:52:23.176Z,1016.39
2018-08-21T10:53:32.087Z,1016.39
2018-08-21T10:54:40.789Z,1016.34
2018-08-21T10:55:49.710Z,1016.37
2018-08-21T10:56:58.367Z,1016.34
2018-08-21T10:58:07.018Z,1016.32
2018-08-21T10:59:15.940Z,1016.31
2018-08-21T11:00:24.606Z,1016.29
2018-08-21T11:01:33.267Z,1016.25
2018-08-21T11:02:41.924Z,1016.24
2018-08-21T11:03:50.564Z,1016.27
2018-08-21T11:04:59.755Z,1016.26
2018-08-21T11:06:08.674Z,1016.25
2018-08-21T11:07:17.866Z,1016.24
2018-08-21T11:08:26.508Z,1016.24
2018-08-21T11:09:35.167Z,1016.23
2018-08-21T11:10:43.816Z,1016.24
2018-08-21T11:11:52.479Z,1016.21
2018-08-21T11:13:01.125Z,1016.18
2018-08-21T11:14:09.784Z,1016.17
2018-08-21T11:15:18.979Z,1016.12
2018-08-21T11:16:27.635Z,1016.14
2018-08-21T11:17:36.286Z,1016.14
2018-08-21T11:18:44.943Z,1016.13
2018-08-21T11:19:53.593Z,1016.14
2018-08-21T11:21:02.250Z,1016.1
2018-08-21T11:22:10.902Z,1016.12
2018-08-21T11:23:19.553Z,1016.09
2018-08-21T11:24:28.210Z,1016.12
2018-08-21T11:25:36.977Z,1016.14
2018-08-21T11:26:45.641Z,1016.13
2018-08-21T11:27:54.289Z,1016.11
2018-08-21T11:29:03.216Z,1016.12
2018-08-21T11:30:12.123Z,1016.12
2018-08-21T11:31:20.786Z,1016.13
2018-08-21T11:32:29.438Z,1016.13
2018-08-21T11:33:38.096Z,1016.09
2018-08-21T11:34:46.737Z,1016.09
2018-08-21T11:35:55.391Z,1016.09
2018-08-21T11:37:04.048Z,1016.08
2018-08-21T11:38:12.703Z,1016.08
2018-08-21T11:39:21.360Z,1016.06
2018-08-21T11:40:30.005Z,1016.05
2018-08-21T11:41:38.665Z,1016.03
2018-08-21T11:42:47.312Z,1016.04
2018-08-21T11:43:55.981Z,1016.06
2018-08-21T11:45:04.626Z,1016.04
2018-08-21T11:46:13.285Z,1016.02
2018-08-21T11:47:21.937Z,1016.05
2018-08-21T11:48:30.600Z,1016.04
2018-08-21T11:49:39.246Z,1016.05
2018-08-21T11:50:47.905Z,1016
2018-08-21T11:51:56.551Z,1015.96
2018-08-21T11:53:05.209Z,1015.96
2018-08-21T11:54:14.123Z,1015.97
2018-08-21T11:55:22.770Z,1015.93
2018-08-21T11:56:31.698Z,1015.91
2018-08-21T11:57:40.353Z,1015.97
2018-08-21T11:58:48.997Z,1015.91
2018-08-21T11:59:57.654Z,1015.92
2018-08-21T12:01:06.304Z,1015.88
2018-08-21T12:02:14.967Z,1015.9
2018-08-21T12:03:23.660Z,1015.88
2018-08-21T12:04:32.641Z,1015.86
2018-08-21T12:05:41.290Z,1015.84
2018-08-21T12:06:50.228Z,1015.84
2018-08-21T12:07:58.873Z,1015.82
2018-08-21T12:09:07.533Z,1015.83
2018-08-21T12:10:16.452Z,1015.86
2018-08-21T12:11:25.380Z,1015.81
2018-08-21T12:12:34.037Z,1015.86
2018-08-21T12:13:43.210Z,1015.81
2018-08-21T12:14:51.878Z,1015.83
2018-08-21T12:16:00.782Z,1015.78
2018-08-21T12:17:09.444Z,1015.79
2018-08-21T12:18:18.089Z,1015.8
2018-08-21T12:19:26.749Z,1015.77
2018-08-21T12:20:35.395Z,1015.79
2018-08-21T12:21:44.057Z,1015.77
2018-08-21T12:22:52.967Z,1015.75
2018-08-21T12:24:01.625Z,1015.77
2018-08-21T12:25:10.268Z,1015.79
2018-08-21T12:26:19.197Z,1015.75
2018-08-21T12:27:27.849Z,1015.77
2018-08-21T12:28:36.505Z,1015.72
2018-08-21T12:29:45.158Z,1015.72
2018-08-21T12:30:53.807Z,1015.68
2018-08-21T12:32:02.465Z,1015.68
2018-08-21T12:33:11.121Z,1015.6
2018-08-21T12:34:19.778Z,1015.63
2018-08-21T12:35:28.422Z,1015.61
2018-08-21T12:36:37.080Z,1015.61
2018-08-21T12:37:45.732Z,1015.61
2018-08-21T12:38:54.396Z,1015.61
2018-08-21T12:40:03.046Z,1015.59
2018-08-21T12:41:11.987Z,1015.56
2018-08-21T12:42:20.637Z,1015.57
2018-08-21T12:43:29.301Z,1015.58
2018-08-21T12:44:37.944Z,1015.54
2018-08-21T12:45:46.607Z,1015.56
2018-08-21T12:46:55.253Z,1015.58
2018-08-21T12:48:04.182Z,1015.58
2018-08-21T12:49:12.835Z,1015.54
2018-08-21T12:50:21.499Z,1015.58
2018-08-21T12:51:30.501Z,1015.58
2018-08-21T12:52:39.152Z,1015.57
2018-08-21T12:53:47.818Z,1015.54
2018-08-21T12:54:56.471Z,1015.54
2018-08-21T12:56:05.440Z,1015.53
2018-08-21T12:57:14.092Z,1015.54
2018-08-21T12:58:22.753Z,1015.56
2018-08-21T12:59:31.409Z,1015.51
2018-08-21T13:00:40.065Z,1015.52
2018-08-21T13:01:48.712Z,1015.49
2018-08-21T13:02:57.370Z,1015.47
2018-08-21T13:04:06.313Z,1015.46
2018-08-21T13:05:14.957Z,1015.46
2018-08-21T13:06:23.605Z,1015.45
2018-08-21T13:07:32.524Z,1015.45
2018-08-21T13:08:41.175Z,1015.46
2018-08-21T13:09:49.829Z,1015.46
2018-08-21T13:10:58.491Z,1015.44
2018-08-21T13:12:07.395Z,1015.5
2018-08-21T13:13:16.053Z,1015.48
2018-08-21T13:14:24.969Z,1015.46
2018-08-21T13:15:33.629Z,1015.44
2018-08-21T13:16:42.277Z,1015.46
2018-08-21T13:17:50.932Z,1015.46
2018-08-21T13:18:59.585Z,1015.45
2018-08-21T13:20:08.512Z,1015.41
2018-08-21T13:21:17.159Z,1015.41
2018-08-21T13:22:25.818Z,1015.37
2018-08-21T13:23:34.464Z,1015.36
2018-08-21T13:24:43.146Z,1015.39
2018-08-21T13:25:51.783Z,1015.39
2018-08-21T13:27:00.429Z,1015.36
2018-08-21T13:28:09.352Z,1015.37
2018-08-21T13:29:18.044Z,1015.35
2018-08-21T13:30:26.665Z,1015.33
2018-08-21T13:31:35.325Z,1015.33
2018-08-21T13:32:43.977Z,1015.34
2018-08-21T13:33:52.625Z,1015.27
2018-08-21T13:35:01.285Z,1015.28
2018-08-21T13:36:10.007Z,1015.2
2018-08-21T13:37:18.894Z,1015.24
2018-08-21T13:38:27.544Z,1015.21
2018-08-21T13:39:36.204Z,1015.21
2018-08-21T13:40:45.119Z,1015.23
2018-08-21T13:41:53.803Z,1015.22
2018-08-21T13:43:02.428Z,1015.22
2018-08-21T13:44:11.116Z,1015.19
2018-08-21T13:45:20.401Z,1015.17
2018-08-21T13:46:29.317Z,1015.19
2018-08-21T13:47:37.983Z,1015.18
2018-08-21T13:48:46.896Z,1015.16
2018-08-21T13:49:55.551Z,1015.2
2018-08-21T13:51:04.219Z,1015.2
2018-08-21T13:52:12.874Z,1015.2
2018-08-21T13:53:21.521Z,1015.2
2018-08-21T13:54:30.183Z,1015.2
2018-08-21T13:55:39.092Z,1015.2